sensor_id;sensor_type;location;lat;lon;timestamp;temperature;humidity
18733;DHT22;9495;51.210;2.934;2022-11-15T00:01:16;11.30;99.90
18733;DHT22;9495;51.210;2.934;2022-11-15T00:03:45;11.30;99.90
18733;DHT22;9495;51.210;2.934;2022-11-15T00:06:14;11.30;99.90
18733;DHT22;9495;51.210;2.934;2022-11-15T00:08:43;11.20;99.90
18733;DHT22;9495;51.210;2.934;2022-11-15T00:11:12;11.30;99.90
18733;DHT22;9495;51.210;2.934;2022-11-15T00:13:40;11.20;99.90
18733;DHT22;9495;51.210;2.934;2022-11-15T00:16:09;11.30;99.90
18733;DHT22;9495;51.210;2.934;2022-11-15T00:18:38;11.20;99.90
18733;DHT22;9495;51.210;2.934;2022-11-15T00:21:11;11.20;99.90
18733;DHT22;9495;51.210;2.934;2022-11-15T00:23:40;11.20;99.90
18733;DHT22;9495;51.210;2.934;2022-11-15T00:26:11;11.40;99.90
18733;DHT22;9495;51.210;2.934;2022-11-15T00:28:40;11.30;99.90
18733;DHT22;9495;51.210;2.934;2022-11-15T00:31:12;11.30;99.90
18733;DHT22;9495;51.210;2.934;2022-11-15T00:33:43;11.50;99.90
18733;DHT22;9495;51.210;2.934;2022-11-15T00:36:12;11.40;99.90
18733;DHT22;9495;51.210;2.934;2022-11-15T00:38:42;11.60;99.90
18733;DHT22;9495;51.210;2.934;2022-11-15T00:41:10;11.60;99.90
18733;DHT22;9495;51.210;2.934;2022-11-15T00:43:38;11.60;99.90
18733;DHT22;9495;51.210;2.934;2022-11-15T00:46:07;11.80;99.90
18733;DHT22;9495;51.210;2.934;2022-11-15T00:48:36;11.90;99.90
18733;DHT22;9495;51.210;2.934;2022-11-15T00:51:05;11.90;99.90
18733;DHT22;9495;51.210;2.934;2022-11-15T00:53:33;12.00;99.90
18733;DHT22;9495;51.210;2.934;2022-11-15T00:56:03;11.80;99.90
18733;DHT22;9495;51.210;2.934;2022-11-15T00:58:32;11.90;99.90
18733;DHT22;9495;51.210;2.934;2022-11-15T01:01:08;11.90;99.90
18733;DHT22;9495;51.210;2.934;2022-11-15T01:03:37;12.10;99.90
18733;DHT22;9495;51.210;2.934;2022-11-15T01:06:07;12.10;99.90
18733;DHT22;9495;51.210;2.934;2022-11-15T01:08:36;12.10;99.90
18733;DHT22;9495;51.210;2.934;2022-11-15T01:11:07;12.00;99.90
18733;DHT22;9495;51.210;2.934;2022-11-15T01:13:37;11.90;99.90
18733;DHT22;9495;51.210;2.934;2022-11-15T01:16:07;12.00;99.90
18733;DHT22;9495;51.210;2.934;2022-11-15T01:18:36;12.40;99.90
18733;DHT22;9495;51.210;2.934;2022-11-15T01:21:06;12.40;99.90
18733;DHT22;9495;51.210;2.934;2022-11-15T01:23:34;12.50;99.90
18733;DHT22;9495;51.210;2.934;2022-11-15T01:26:05;12.70;99.90
18733;DHT22;9495;51.210;2.934;2022-11-15T01:28:35;12.50;99.90
18733;DHT22;9495;51.210;2.934;2022-11-15T01:31:05;12.30;99.90
18733;DHT22;9495;51.210;2.934;2022-11-15T01:33:34;12.90;99.90
18733;DHT22;9495;51.210;2.934;2022-11-15T01:36:04;12.70;99.90
18733;DHT22;9495;51.210;2.934;2022-11-15T01:38:33;12.50;99.90
18733;DHT22;9495;51.210;2.934;2022-11-15T01:41:01;12.50;99.90
18733;DHT22;9495;51.210;2.934;2022-11-15T01:43:33;13.00;99.90
18733;DHT22;9495;51.210;2.934;2022-11-15T01:46:06;13.00;99.90
18733;DHT22;9495;51.210;2.934;2022-11-15T01:48:43;12.90;99.90
18733;DHT22;9495;51.210;2.934;2022-11-15T01:51:13;13.00;99.90
18733;DHT22;9495;51.210;2.934;2022-11-15T01:53:46;13.00;99.90
18733;DHT22;9495;51.210;2.934;2022-11-15T01:56:18;13.10;99.90
18733;DHT22;9495;51.210;2.934;2022-11-15T01:58:50;13.20;99.90
18733;DHT22;9495;51.210;2.934;2022-11-15T02:01:19;13.10;99.90
18733;DHT22;9495;51.210;2.934;2022-11-15T02:03:50;13.00;99.90
18733;DHT22;9495;51.210;2.934;2022-11-15T02:06:20;12.90;99.90
18733;DHT22;9495;51.210;2.934;2022-11-15T02:08:49;12.90;99.90
18733;DHT22;9495;51.210;2.934;2022-11-15T02:11:18;12.70;99.90
18733;DHT22;9495;51.210;2.934;2022-11-15T02:13:47;12.70;99.90
18733;DHT22;9495;51.210;2.934;2022-11-15T02:16:27;12.60;99.90
18733;DHT22;9495;51.210;2.934;2022-11-15T02:19:05;12.90;99.90
18733;DHT22;9495;51.210;2.934;2022-11-15T02:21:39;12.80;99.90
18733;DHT22;9495;51.210;2.934;2022-11-15T02:24:41;12.60;99.90
18733;DHT22;9495;51.210;2.934;2022-11-15T02:30:20;12.90;99.90
18733;DHT22;9495;51.210;2.934;2022-11-15T02:32:52;13.50;99.90
18733;DHT22;9495;51.210;2.934;2022-11-15T02:35:29;13.10;99.90
18733;DHT22;9495;51.210;2.934;2022-11-15T02:38:07;13.50;99.90
18733;DHT22;9495;51.210;2.934;2022-11-15T02:40:40;14.00;99.90
18733;DHT22;9495;51.210;2.934;2022-11-15T02:43:12;13.80;99.90
18733;DHT22;9495;51.210;2.934;2022-11-15T02:46:06;13.50;99.90
18733;DHT22;9495;51.210;2.934;2022-11-15T02:48:37;13.40;99.90
18733;DHT22;9495;51.210;2.934;2022-11-15T02:51:06;13.40;99.90
18733;DHT22;9495;51.210;2.934;2022-11-15T02:53:34;13.10;99.90
18733;DHT22;9495;51.210;2.934;2022-11-15T02:56:03;13.20;99.90
18733;DHT22;9495;51.210;2.934;2022-11-15T02:58:56;13.40;99.90
18733;DHT22;9495;51.210;2.934;2022-11-15T03:01:41;13.20;99.90
18733;DHT22;9495;51.210;2.934;2022-11-15T03:04:23;13.10;99.90
18733;DHT22;9495;51.210;2.934;2022-11-15T03:07:01;12.60;99.90
18733;DHT22;9495;51.210;2.934;2022-11-15T03:09:35;12.40;99.90
18733;DHT22;9495;51.210;2.934;2022-11-15T03:12:11;12.50;99.90
18733;DHT22;9495;51.210;2.934;2022-11-15T03:14:47;12.30;99.90
18733;DHT22;9495;51.210;2.934;2022-11-15T03:17:24;12.20;99.90
18733;DHT22;9495;51.210;2.934;2022-11-15T03:19:54;12.10;99.90
18733;DHT22;9495;51.210;2.934;2022-11-15T03:22:25;12.10;99.90
18733;DHT22;9495;51.210;2.934;2022-11-15T03:24:57;11.90;99.90
18733;DHT22;9495;51.210;2.934;2022-11-15T03:27:30;11.90;99.90
18733;DHT22;9495;51.210;2.934;2022-11-15T03:30:02;11.70;99.90
18733;DHT22;9495;51.210;2.934;2022-11-15T03:32:37;11.70;99.90
18733;DHT22;9495;51.210;2.934;2022-11-15T03:35:09;11.80;99.90
18733;DHT22;9495;51.210;2.934;2022-11-15T03:37:41;11.80;99.90
18733;DHT22;9495;51.210;2.934;2022-11-15T03:40:12;11.70;99.90
18733;DHT22;9495;51.210;2.934;2022-11-15T03:42:45;11.70;99.90
18733;DHT22;9495;51.210;2.934;2022-11-15T03:45:16;12.00;99.90
18733;DHT22;9495;51.210;2.934;2022-11-15T03:47:52;11.90;99.90
18733;DHT22;9495;51.210;2.934;2022-11-15T03:50:22;11.90;99.90
18733;DHT22;9495;51.210;2.934;2022-11-15T03:52:54;12.30;99.90
18733;DHT22;9495;51.210;2.934;2022-11-15T03:55:23;12.40;99.90
18733;DHT22;9495;51.210;2.934;2022-11-15T03:57:54;12.20;99.90
18733;DHT22;9495;51.210;2.934;2022-11-15T04:00:23;12.00;99.90
18733;DHT22;9495;51.210;2.934;2022-11-15T04:02:53;12.20;99.90
18733;DHT22;9495;51.210;2.934;2022-11-15T04:05:21;11.80;99.90
18733;DHT22;9495;51.210;2.934;2022-11-15T04:07:50;11.60;99.90
18733;DHT22;9495;51.210;2.934;2022-11-15T04:10:19;11.40;99.90
18733;DHT22;9495;51.210;2.934;2022-11-15T04:12:47;11.50;99.90
18733;DHT22;9495;51.210;2.934;2022-11-15T04:15:16;11.70;99.90
18733;DHT22;9495;51.210;2.934;2022-11-15T04:17:46;11.30;99.90
18733;DHT22;9495;51.210;2.934;2022-11-15T04:20:18;11.30;99.90
18733;DHT22;9495;51.210;2.934;2022-11-15T04:23:05;11.30;99.90
18733;DHT22;9495;51.210;2.934;2022-11-15T04:25:53;11.60;99.90
18733;DHT22;9495;51.210;2.934;2022-11-15T04:28:22;11.40;99.90
18733;DHT22;9495;51.210;2.934;2022-11-15T04:30:51;11.60;99.90
18733;DHT22;9495;51.210;2.934;2022-11-15T04:33:19;11.40;99.90
18733;DHT22;9495;51.210;2.934;2022-11-15T04:35:49;11.20;99.90
18733;DHT22;9495;51.210;2.934;2022-11-15T04:38:32;11.10;99.90
18733;DHT22;9495;51.210;2.934;2022-11-15T04:41:00;11.00;99.90
18733;DHT22;9495;51.210;2.934;2022-11-15T04:43:29;10.90;99.90
18733;DHT22;9495;51.210;2.934;2022-11-15T04:45:58;10.80;99.90
18733;DHT22;9495;51.210;2.934;2022-11-15T04:48:26;10.80;99.90
18733;DHT22;9495;51.210;2.934;2022-11-15T04:50:56;10.70;99.90
18733;DHT22;9495;51.210;2.934;2022-11-15T04:53:24;10.70;99.90
18733;DHT22;9495;51.210;2.934;2022-11-15T04:55:52;10.60;99.90
18733;DHT22;9495;51.210;2.934;2022-11-15T04:58:21;10.60;99.90
18733;DHT22;9495;51.210;2.934;2022-11-15T05:00:49;10.60;99.90
18733;DHT22;9495;51.210;2.934;2022-11-15T05:03:17;10.60;99.90
18733;DHT22;9495;51.210;2.934;2022-11-15T05:06:05;10.70;99.90
18733;DHT22;9495;51.210;2.934;2022-11-15T05:08:34;10.50;99.90
18733;DHT22;9495;51.210;2.934;2022-11-15T05:11:02;10.60;99.90
18733;DHT22;9495;51.210;2.934;2022-11-15T05:13:31;10.70;99.90
18733;DHT22;9495;51.210;2.934;2022-11-15T05:16:00;11.00;99.90
18733;DHT22;9495;51.210;2.934;2022-11-15T05:18:28;11.00;99.90
18733;DHT22;9495;51.210;2.934;2022-11-15T05:21:02;10.80;99.90
18733;DHT22;9495;51.210;2.934;2022-11-15T05:23:32;10.70;99.90
18733;DHT22;9495;51.210;2.934;2022-11-15T05:26:00;11.30;99.90
18733;DHT22;9495;51.210;2.934;2022-11-15T05:28:35;11.30;99.90
18733;DHT22;9495;51.210;2.934;2022-11-15T05:31:05;11.30;99.90
18733;DHT22;9495;51.210;2.934;2022-11-15T05:33:34;11.40;99.90
18733;DHT22;9495;51.210;2.934;2022-11-15T05:36:06;11.70;99.90
18733;DHT22;9495;51.210;2.934;2022-11-15T05:38:37;11.10;99.90
18733;DHT22;9495;51.210;2.934;2022-11-15T05:41:06;11.10;99.90
18733;DHT22;9495;51.210;2.934;2022-11-15T05:43:36;10.80;99.90
18733;DHT22;9495;51.210;2.934;2022-11-15T05:46:06;10.90;99.90
18733;DHT22;9495;51.210;2.934;2022-11-15T05:48:36;11.10;99.90
18733;DHT22;9495;51.210;2.934;2022-11-15T05:51:07;11.30;99.90
18733;DHT22;9495;51.210;2.934;2022-11-15T05:53:37;10.90;99.90
18733;DHT22;9495;51.210;2.934;2022-11-15T05:56:06;11.20;99.90
18733;DHT22;9495;51.210;2.934;2022-11-15T05:58:34;10.80;99.90
18733;DHT22;9495;51.210;2.934;2022-11-15T06:01:04;10.60;99.90
18733;DHT22;9495;51.210;2.934;2022-11-15T06:03:33;10.60;99.90
18733;DHT22;9495;51.210;2.934;2022-11-15T06:06:01;10.80;99.90
18733;DHT22;9495;51.210;2.934;2022-11-15T06:08:29;10.60;99.90
18733;DHT22;9495;51.210;2.934;2022-11-15T06:11:04;11.10;99.90
18733;DHT22;9495;51.210;2.934;2022-11-15T06:13:33;10.60;99.90
18733;DHT22;9495;51.210;2.934;2022-11-15T06:16:01;10.50;99.90
18733;DHT22;9495;51.210;2.934;2022-11-15T06:18:32;10.60;99.90
18733;DHT22;9495;51.210;2.934;2022-11-15T06:21:01;10.40;99.90
18733;DHT22;9495;51.210;2.934;2022-11-15T06:23:32;10.80;99.90
18733;DHT22;9495;51.210;2.934;2022-11-15T06:26:01;10.60;99.90
18733;DHT22;9495;51.210;2.934;2022-11-15T06:28:32;10.70;99.90
18733;DHT22;9495;51.210;2.934;2022-11-15T06:31:03;11.00;99.90
18733;DHT22;9495;51.210;2.934;2022-11-15T06:33:32;10.80;99.90
18733;DHT22;9495;51.210;2.934;2022-11-15T06:36:01;10.80;99.90
18733;DHT22;9495;51.210;2.934;2022-11-15T06:38:29;10.80;99.90
18733;DHT22;9495;51.210;2.934;2022-11-15T06:41:01;11.40;99.90
18733;DHT22;9495;51.210;2.934;2022-11-15T06:43:31;11.60;99.90
18733;DHT22;9495;51.210;2.934;2022-11-15T06:46:01;11.80;99.90
18733;DHT22;9495;51.210;2.934;2022-11-15T06:48:30;11.50;99.90
18733;DHT22;9495;51.210;2.934;2022-11-15T06:51:01;11.90;99.90
18733;DHT22;9495;51.210;2.934;2022-11-15T06:53:30;12.10;99.90
18733;DHT22;9495;51.210;2.934;2022-11-15T06:56:00;12.30;99.90
18733;DHT22;9495;51.210;2.934;2022-11-15T06:58:30;12.40;99.90
18733;DHT22;9495;51.210;2.934;2022-11-15T07:00:59;12.50;99.90
18733;DHT22;9495;51.210;2.934;2022-11-15T07:03:28;12.50;99.90
18733;DHT22;9495;51.210;2.934;2022-11-15T07:05:57;12.70;99.90
18733;DHT22;9495;51.210;2.934;2022-11-15T07:08:33;13.60;99.90
18733;DHT22;9495;51.210;2.934;2022-11-15T07:11:04;13.60;99.90
18733;DHT22;9495;51.210;2.934;2022-11-15T07:13:35;14.50;99.90
18733;DHT22;9495;51.210;2.934;2022-11-15T07:16:05;14.30;99.90
18733;DHT22;9495;51.210;2.934;2022-11-15T07:18:34;13.90;99.90
18733;DHT22;9495;51.210;2.934;2022-11-15T07:21:03;13.50;99.90
18733;DHT22;9495;51.210;2.934;2022-11-15T07:23:32;12.90;99.90
18733;DHT22;9495;51.210;2.934;2022-11-15T07:26:01;12.80;99.90
18733;DHT22;9495;51.210;2.934;2022-11-15T07:28:29;13.50;99.90
18733;DHT22;9495;51.210;2.934;2022-11-15T07:31:02;13.40;99.90
18733;DHT22;9495;51.210;2.934;2022-11-15T07:33:30;12.70;99.90
18733;DHT22;9495;51.210;2.934;2022-11-15T07:36:00;12.70;99.90
18733;DHT22;9495;51.210;2.934;2022-11-15T07:38:29;12.30;99.90
18733;DHT22;9495;51.210;2.934;2022-11-15T07:40:59;12.40;99.90
18733;DHT22;9495;51.210;2.934;2022-11-15T07:43:27;12.30;99.90
18733;DHT22;9495;51.210;2.934;2022-11-15T07:45:57;12.30;99.90
18733;DHT22;9495;51.210;2.934;2022-11-15T07:48:27;12.10;99.90
18733;DHT22;9495;51.210;2.934;2022-11-15T07:51:11;11.90;99.90
18733;DHT22;9495;51.210;2.934;2022-11-15T07:53:40;11.80;99.90
18733;DHT22;9495;51.210;2.934;2022-11-15T07:56:09;12.60;99.90
18733;DHT22;9495;51.210;2.934;2022-11-15T07:58:38;12.40;99.90
18733;DHT22;9495;51.210;2.934;2022-11-15T08:01:08;12.20;99.90
18733;DHT22;9495;51.210;2.934;2022-11-15T08:03:38;12.10;99.90
18733;DHT22;9495;51.210;2.934;2022-11-15T08:06:06;12.80;99.90
18733;DHT22;9495;51.210;2.934;2022-11-15T08:08:35;12.70;99.90
18733;DHT22;9495;51.210;2.934;2022-11-15T08:11:03;13.10;99.90
18733;DHT22;9495;51.210;2.934;2022-11-15T08:13:31;13.50;99.90
18733;DHT22;9495;51.210;2.934;2022-11-15T08:16:01;14.40;99.90
18733;DHT22;9495;51.210;2.934;2022-11-15T08:18:32;14.30;99.90
18733;DHT22;9495;51.210;2.934;2022-11-15T08:21:02;14.50;99.90
18733;DHT22;9495;51.210;2.934;2022-11-15T08:23:30;13.80;99.90
18733;DHT22;9495;51.210;2.934;2022-11-15T08:26:00;13.10;99.90
18733;DHT22;9495;51.210;2.934;2022-11-15T08:28:30;13.50;99.90
18733;DHT22;9495;51.210;2.934;2022-11-15T08:30:58;13.30;99.90
18733;DHT22;9495;51.210;2.934;2022-11-15T08:33:27;13.80;99.90
18733;DHT22;9495;51.210;2.934;2022-11-15T08:35:56;14.30;99.90
18733;DHT22;9495;51.210;2.934;2022-11-15T08:38:27;14.80;99.90
18733;DHT22;9495;51.210;2.934;2022-11-15T08:41:01;15.20;99.90
18733;DHT22;9495;51.210;2.934;2022-11-15T08:43:29;14.80;99.90
18733;DHT22;9495;51.210;2.934;2022-11-15T08:45:58;14.80;99.90
18733;DHT22;9495;51.210;2.934;2022-11-15T08:48:27;15.00;99.90
18733;DHT22;9495;51.210;2.934;2022-11-15T08:50:56;14.70;99.90
18733;DHT22;9495;51.210;2.934;2022-11-15T08:53:25;14.50;99.90
18733;DHT22;9495;51.210;2.934;2022-11-15T08:55:54;14.20;99.90
18733;DHT22;9495;51.210;2.934;2022-11-15T08:58:22;14.70;99.90
18733;DHT22;9495;51.210;2.934;2022-11-15T09:00:51;15.30;99.90
18733;DHT22;9495;51.210;2.934;2022-11-15T09:03:19;15.30;99.90
18733;DHT22;9495;51.210;2.934;2022-11-15T09:05:48;15.00;99.90
18733;DHT22;9495;51.210;2.934;2022-11-15T09:08:16;15.70;99.90
18733;DHT22;9495;51.210;2.934;2022-11-15T09:11:08;15.80;99.90
18733;DHT22;9495;51.210;2.934;2022-11-15T09:13:36;15.90;99.90
18733;DHT22;9495;51.210;2.934;2022-11-15T09:16:05;16.00;99.90
18733;DHT22;9495;51.210;2.934;2022-11-15T09:18:34;16.20;99.90
18733;DHT22;9495;51.210;2.934;2022-11-15T09:21:02;16.00;99.90
18733;DHT22;9495;51.210;2.934;2022-11-15T09:23:31;15.50;99.90
18733;DHT22;9495;51.210;2.934;2022-11-15T09:26:00;15.60;99.90
18733;DHT22;9495;51.210;2.934;2022-11-15T09:28:31;16.00;99.90
18733;DHT22;9495;51.210;2.934;2022-11-15T09:31:02;16.20;99.90
18733;DHT22;9495;51.210;2.934;2022-11-15T09:33:30;16.00;99.90
18733;DHT22;9495;51.210;2.934;2022-11-15T09:36:00;16.10;99.90
18733;DHT22;9495;51.210;2.934;2022-11-15T09:38:29;16.20;99.90
18733;DHT22;9495;51.210;2.934;2022-11-15T09:41:15;16.30;99.90
18733;DHT22;9495;51.210;2.934;2022-11-15T09:43:52;16.30;99.90
18733;DHT22;9495;51.210;2.934;2022-11-15T09:46:30;16.30;99.90
18733;DHT22;9495;51.210;2.934;2022-11-15T09:49:01;16.50;99.90
18733;DHT22;9495;51.210;2.934;2022-11-15T09:51:32;16.20;99.90
18733;DHT22;9495;51.210;2.934;2022-11-15T09:54:05;16.20;99.90
18733;DHT22;9495;51.210;2.934;2022-11-15T09:57:03;15.80;99.90
18733;DHT22;9495;51.210;2.934;2022-11-15T09:59:58;16.20;99.90
18733;DHT22;9495;51.210;2.934;2022-11-15T10:03:08;16.20;99.90
18733;DHT22;9495;51.210;2.934;2022-11-15T10:05:39;16.60;99.90
18733;DHT22;9495;51.210;2.934;2022-11-15T10:08:20;16.70;99.90
18733;DHT22;9495;51.210;2.934;2022-11-15T10:10:55;16.50;99.90
18733;DHT22;9495;51.210;2.934;2022-11-15T10:13:46;16.50;99.90
18733;DHT22;9495;51.210;2.934;2022-11-15T10:16:41;15.90;99.90
18733;DHT22;9495;51.210;2.934;2022-11-15T10:19:20;16.50;99.90
18733;DHT22;9495;51.210;2.934;2022-11-15T10:21:59;16.70;99.90
18733;DHT22;9495;51.210;2.934;2022-11-15T10:24:34;16.40;99.90
18733;DHT22;9495;51.210;2.934;2022-11-15T10:27:09;16.30;99.90
18733;DHT22;9495;51.210;2.934;2022-11-15T10:29:43;16.20;99.90
18733;DHT22;9495;51.210;2.934;2022-11-15T10:32:16;16.80;99.90
18733;DHT22;9495;51.210;2.934;2022-11-15T10:34:46;16.60;99.90
18733;DHT22;9495;51.210;2.934;2022-11-15T10:37:14;16.70;99.90
18733;DHT22;9495;51.210;2.934;2022-11-15T10:40:03;16.50;99.90
18733;DHT22;9495;51.210;2.934;2022-11-15T10:42:32;16.00;99.90
18733;DHT22;9495;51.210;2.934;2022-11-15T10:45:01;16.50;99.90
18733;DHT22;9495;51.210;2.934;2022-11-15T10:47:32;16.90;99.90
18733;DHT22;9495;51.210;2.934;2022-11-15T10:50:07;16.80;99.90
18733;DHT22;9495;51.210;2.934;2022-11-15T10:52:45;16.70;99.90
18733;DHT22;9495;51.210;2.934;2022-11-15T10:55:24;16.90;99.90
18733;DHT22;9495;51.210;2.934;2022-11-15T10:57:55;16.90;99.90
18733;DHT22;9495;51.210;2.934;2022-11-15T11:00:32;17.20;99.90
18733;DHT22;9495;51.210;2.934;2022-11-15T11:03:04;17.10;99.90
18733;DHT22;9495;51.210;2.934;2022-11-15T11:05:36;16.90;99.90
18733;DHT22;9495;51.210;2.934;2022-11-15T11:08:22;16.70;99.90
18733;DHT22;9495;51.210;2.934;2022-11-15T11:10:53;16.80;99.90
18733;DHT22;9495;51.210;2.934;2022-11-15T11:13:30;17.10;99.90
18733;DHT22;9495;51.210;2.934;2022-11-15T11:16:09;16.70;99.90
18733;DHT22;9495;51.210;2.934;2022-11-15T11:18:49;16.90;99.90
18733;DHT22;9495;51.210;2.934;2022-11-15T11:21:26;17.50;99.90
18733;DHT22;9495;51.210;2.934;2022-11-15T11:24:11;15.40;99.90
18733;DHT22;9495;51.210;2.934;2022-11-15T11:26:46;14.60;99.90
18733;DHT22;9495;51.210;2.934;2022-11-15T11:29:31;14.30;99.90
18733;DHT22;9495;51.210;2.934;2022-11-15T11:32:07;14.10;99.90
18733;DHT22;9495;51.210;2.934;2022-11-15T11:34:50;14.30;99.90
18733;DHT22;9495;51.210;2.934;2022-11-15T11:37:24;15.70;99.90
18733;DHT22;9495;51.210;2.934;2022-11-15T11:40:03;16.60;99.90
18733;DHT22;9495;51.210;2.934;2022-11-15T11:42:44;16.50;99.90
18733;DHT22;9495;51.210;2.934;2022-11-15T11:45:19;16.90;99.90
18733;DHT22;9495;51.210;2.934;2022-11-15T11:47:55;17.10;99.90
18733;DHT22;9495;51.210;2.934;2022-11-15T11:50:28;17.20;99.90
18733;DHT22;9495;51.210;2.934;2022-11-15T11:53:01;17.00;99.90
18733;DHT22;9495;51.210;2.934;2022-11-15T11:55:33;17.10;99.90
18733;DHT22;9495;51.210;2.934;2022-11-15T11:58:11;17.30;99.90
18733;DHT22;9495;51.210;2.934;2022-11-15T12:00:44;17.10;99.90
18733;DHT22;9495;51.210;2.934;2022-11-15T12:03:20;17.10;99.90
18733;DHT22;9495;51.210;2.934;2022-11-15T12:05:54;17.00;99.90
18733;DHT22;9495;51.210;2.934;2022-11-15T12:08:32;16.70;99.90
18733;DHT22;9495;51.210;2.934;2022-11-15T12:11:08;16.80;99.90
18733;DHT22;9495;51.210;2.934;2022-11-15T12:13:38;16.90;99.90
18733;DHT22;9495;51.210;2.934;2022-11-15T12:16:12;17.20;99.90
18733;DHT22;9495;51.210;2.934;2022-11-15T12:18:46;16.80;99.90
18733;DHT22;9495;51.210;2.934;2022-11-15T12:21:24;17.00;99.90
18733;DHT22;9495;51.210;2.934;2022-11-15T12:24:00;16.90;99.90
18733;DHT22;9495;51.210;2.934;2022-11-15T12:26:34;16.80;99.90
18733;DHT22;9495;51.210;2.934;2022-11-15T12:29:06;16.80;99.90
18733;DHT22;9495;51.210;2.934;2022-11-15T12:31:39;17.10;99.90
18733;DHT22;9495;51.210;2.934;2022-11-15T12:34:38;16.90;99.90
18733;DHT22;9495;51.210;2.934;2022-11-15T12:40:36;17.10;99.90
18733;DHT22;9495;51.210;2.934;2022-11-15T12:46:02;17.00;99.90
18733;DHT22;9495;51.210;2.934;2022-11-15T12:48:50;17.30;99.90
18733;DHT22;9495;51.210;2.934;2022-11-15T12:57:37;17.40;99.90
18733;DHT22;9495;51.210;2.934;2022-11-15T13:00:39;17.40;99.90
18733;DHT22;9495;51.210;2.934;2022-11-15T13:03:25;17.40;99.90
18733;DHT22;9495;51.210;2.934;2022-11-15T13:06:39;17.10;99.90
18733;DHT22;9495;51.210;2.934;2022-11-15T13:08:58;17.10;99.90
18733;DHT22;9495;51.210;2.934;2022-11-15T13:11:46;17.00;99.90
18733;DHT22;9495;51.210;2.934;2022-11-15T13:14:42;17.00;99.90
18733;DHT22;9495;51.210;2.934;2022-11-15T13:17:28;16.90;99.90
18733;DHT22;9495;51.210;2.934;2022-11-15T13:20:11;17.00;99.90
18733;DHT22;9495;51.210;2.934;2022-11-15T13:22:45;17.30;99.90
18733;DHT22;9495;51.210;2.934;2022-11-15T13:28:28;17.00;99.90
18733;DHT22;9495;51.210;2.934;2022-11-15T13:31:21;17.10;99.90
18733;DHT22;9495;51.210;2.934;2022-11-15T13:33:50;17.30;99.90
18733;DHT22;9495;51.210;2.934;2022-11-15T13:36:20;17.00;99.90
18733;DHT22;9495;51.210;2.934;2022-11-15T13:38:58;17.00;99.90
18733;DHT22;9495;51.210;2.934;2022-11-15T13:41:28;16.90;99.90
18733;DHT22;9495;51.210;2.934;2022-11-15T13:43:57;16.00;99.90
18733;DHT22;9495;51.210;2.934;2022-11-15T13:46:29;16.70;99.90
18733;DHT22;9495;51.210;2.934;2022-11-15T13:48:59;17.20;99.90
18733;DHT22;9495;51.210;2.934;2022-11-15T13:51:32;17.30;99.90
18733;DHT22;9495;51.210;2.934;2022-11-15T13:54:03;17.30;99.90
18733;DHT22;9495;51.210;2.934;2022-11-15T13:56:36;16.90;99.90
18733;DHT22;9495;51.210;2.934;2022-11-15T13:59:09;16.40;99.90
18733;DHT22;9495;51.210;2.934;2022-11-15T14:01:41;17.00;99.90
18733;DHT22;9495;51.210;2.934;2022-11-15T14:04:13;17.10;99.90
18733;DHT22;9495;51.210;2.934;2022-11-15T14:06:47;16.60;99.90
18733;DHT22;9495;51.210;2.934;2022-11-15T14:09:32;17.00;99.90
18733;DHT22;9495;51.210;2.934;2022-11-15T14:12:02;16.90;99.90
18733;DHT22;9495;51.210;2.934;2022-11-15T14:14:48;17.30;99.90
18733;DHT22;9495;51.210;2.934;2022-11-15T14:17:21;16.70;99.90
18733;DHT22;9495;51.210;2.934;2022-11-15T14:19:50;16.40;99.90
18733;DHT22;9495;51.210;2.934;2022-11-15T14:22:21;16.90;99.90
18733;DHT22;9495;51.210;2.934;2022-11-15T14:25:17;16.60;99.90
18733;DHT22;9495;51.210;2.934;2022-11-15T14:28:15;16.70;99.90
18733;DHT22;9495;51.210;2.934;2022-11-15T14:30:45;16.80;99.90
18733;DHT22;9495;51.210;2.934;2022-11-15T14:33:23;16.80;99.90
18733;DHT22;9495;51.210;2.934;2022-11-15T14:35:53;17.00;99.90
18733;DHT22;9495;51.210;2.934;2022-11-15T14:38:23;17.00;99.90
18733;DHT22;9495;51.210;2.934;2022-11-15T14:40:51;17.20;99.90
18733;DHT22;9495;51.210;2.934;2022-11-15T14:43:21;16.70;99.90
18733;DHT22;9495;51.210;2.934;2022-11-15T14:45:49;17.00;99.90
18733;DHT22;9495;51.210;2.934;2022-11-15T14:48:17;17.20;99.90
18733;DHT22;9495;51.210;2.934;2022-11-15T14:50:47;17.30;99.90
18733;DHT22;9495;51.210;2.934;2022-11-15T14:53:17;17.10;99.90
18733;DHT22;9495;51.210;2.934;2022-11-15T14:55:46;16.40;99.90
18733;DHT22;9495;51.210;2.934;2022-11-15T14:58:15;16.20;99.90
18733;DHT22;9495;51.210;2.934;2022-11-15T15:00:43;16.70;99.90
18733;DHT22;9495;51.210;2.934;2022-11-15T15:03:12;16.80;99.90
18733;DHT22;9495;51.210;2.934;2022-11-15T15:05:41;16.70;99.90
18733;DHT22;9495;51.210;2.934;2022-11-15T15:08:11;16.90;99.90
18733;DHT22;9495;51.210;2.934;2022-11-15T15:10:41;16.90;99.90
18733;DHT22;9495;51.210;2.934;2022-11-15T15:13:16;17.00;99.90
18733;DHT22;9495;51.210;2.934;2022-11-15T15:15:45;17.40;99.90
18733;DHT22;9495;51.210;2.934;2022-11-15T15:18:14;17.30;99.90
18733;DHT22;9495;51.210;2.934;2022-11-15T15:20:43;17.10;99.90
18733;DHT22;9495;51.210;2.934;2022-11-15T15:23:20;17.10;99.90
18733;DHT22;9495;51.210;2.934;2022-11-15T15:25:50;17.20;99.90
18733;DHT22;9495;51.210;2.934;2022-11-15T15:28:19;17.20;99.90
18733;DHT22;9495;51.210;2.934;2022-11-15T15:30:48;16.90;99.90
18733;DHT22;9495;51.210;2.934;2022-11-15T15:33:16;16.90;99.90
18733;DHT22;9495;51.210;2.934;2022-11-15T15:35:45;16.90;99.90
18733;DHT22;9495;51.210;2.934;2022-11-15T15:38:14;17.30;99.90
18733;DHT22;9495;51.210;2.934;2022-11-15T15:40:44;16.40;99.90
18733;DHT22;9495;51.210;2.934;2022-11-15T15:43:12;16.50;99.90
18733;DHT22;9495;51.210;2.934;2022-11-15T15:45:41;16.90;99.90
18733;DHT22;9495;51.210;2.934;2022-11-15T15:48:13;16.80;99.90
18733;DHT22;9495;51.210;2.934;2022-11-15T15:50:42;16.30;99.90
18733;DHT22;9495;51.210;2.934;2022-11-15T15:53:11;16.90;99.90
18733;DHT22;9495;51.210;2.934;2022-11-15T15:55:40;17.30;99.90
18733;DHT22;9495;51.210;2.934;2022-11-15T15:58:10;16.90;99.90
18733;DHT22;9495;51.210;2.934;2022-11-15T16:00:38;17.00;99.90
18733;DHT22;9495;51.210;2.934;2022-11-15T16:03:07;17.00;99.90
18733;DHT22;9495;51.210;2.934;2022-11-15T16:05:36;16.80;99.90
18733;DHT22;9495;51.210;2.934;2022-11-15T16:08:04;16.60;99.90
18733;DHT22;9495;51.210;2.934;2022-11-15T16:10:33;16.50;99.90
18733;DHT22;9495;51.210;2.934;2022-11-15T16:13:03;16.50;99.90
18733;DHT22;9495;51.210;2.934;2022-11-15T16:15:33;16.70;99.90
18733;DHT22;9495;51.210;2.934;2022-11-15T16:18:03;16.80;99.90
18733;DHT22;9495;51.210;2.934;2022-11-15T16:20:36;17.00;99.90
18733;DHT22;9495;51.210;2.934;2022-11-15T16:23:07;17.00;99.90
18733;DHT22;9495;51.210;2.934;2022-11-15T16:25:41;16.80;99.90
18733;DHT22;9495;51.210;2.934;2022-11-15T16:28:17;17.00;99.90
18733;DHT22;9495;51.210;2.934;2022-11-15T16:30:47;17.20;99.90
18733;DHT22;9495;51.210;2.934;2022-11-15T16:33:23;17.20;99.90
18733;DHT22;9495;51.210;2.934;2022-11-15T16:35:51;17.40;99.90
18733;DHT22;9495;51.210;2.934;2022-11-15T16:38:20;17.10;99.90